createdAt,value
2019-05-07T00:01:52.623Z,56.11
2019-05-07T00:06:55.953Z,55.83
2019-05-07T00:12:02.704Z,56.22
2019-05-07T00:17:06.054Z,56.22
2019-05-07T00:22:12.411Z,55.98
2019-05-07T00:27:16.168Z,56.12
2019-05-07T00:32:22.112Z,56.24
2019-05-07T00:37:33.156Z,56.29
2019-05-07T00:42:56.329Z,56.29
2019-05-07T00:48:02.806Z,56.36
2019-05-07T00:53:06.502Z,56.68
2019-05-07T00:58:13.113Z,56.36
2019-05-07T01:03:16.733Z,56.36
2019-05-07T01:08:22.520Z,57.15
2019-05-07T01:13:26.674Z,57.32
2019-05-07T01:18:32.382Z,57.43
2019-05-07T01:23:36.891Z,57.41
2019-05-07T01:29:02.285Z,57.96
2019-05-07T01:34:27.802Z,58.09
2019-05-07T01:39:32.666Z,58.09
2019-05-07T01:44:37.066Z,57.90
2019-05-07T01:49:42.224Z,58.07
2019-05-07T01:54:47.504Z,58.15
2019-05-07T01:59:52.722Z,57.82
2019-05-07T02:05:12.289Z,57.82
2019-05-07T02:10:47.769Z,58.12
2019-05-07T02:15:58.562Z,58.19
2019-05-07T02:20:57.892Z,58.15
2019-05-07T02:26:02.521Z,58.38
2019-05-07T02:31:06.837Z,58.76
2019-05-07T02:36:14.129Z,58.95
2019-05-07T02:41:23.647Z,58.95
2019-05-07T02:46:44.236Z,58.79
2019-05-07T02:51:57.348Z,59.05
2019-05-07T02:57:03.142Z,59.18
2019-05-07T03:02:07.748Z,59.26
2019-05-07T03:07:13.138Z,59.15
2019-05-07T03:12:17.857Z,59.45
2019-05-07T03:17:24.566Z,58.98
2019-05-07T03:22:27.939Z,59.82
2019-05-07T03:27:34.186Z,59.82
2019-05-07T03:32:48.192Z,59.54
2019-05-07T03:37:54.661Z,60.08
2019-05-07T03:43:01.741Z,59.86
2019-05-07T03:48:15.915Z,59.73
2019-05-07T03:53:22.698Z,59.73
2019-05-07T03:58:25.978Z,59.52
2019-05-07T04:03:33.700Z,58.83
2019-05-07T04:08:36.100Z,58.79
2019-05-07T04:13:40.241Z,58.67
2019-05-07T04:18:44.378Z,59.08
2019-05-07T04:23:50.405Z,58.49
2019-05-07T04:29:06.548Z,59.00
2019-05-07T04:34:16.363Z,59.00
2019-05-07T04:39:23.082Z,58.83
2019-05-07T04:44:26.354Z,58.58
2019-05-07T04:49:32.971Z,58.75
2019-05-07T04:54:36.290Z,58.76
2019-05-07T04:59:42.804Z,58.19
2019-05-07T05:04:46.398Z,58.24
2019-05-07T05:09:52.977Z,58.24
2019-05-07T05:14:56.513Z,58.41
2019-05-07T05:20:03.593Z,58.23
2019-05-07T05:25:12.095Z,58.23
2019-05-07T05:30:22.088Z,58.32
2019-05-07T05:35:26.225Z,58.58
2019-05-07T05:40:31.997Z,58.09
2019-05-07T05:45:42.627Z,58.09
2019-05-07T05:50:53.879Z,58.31
2019-05-07T05:55:59.821Z,58.06
2019-05-07T06:01:37.940Z,58.23
2019-05-07T06:06:48.865Z,58.30
2019-05-07T06:12:12.679Z,58.50
2019-05-07T06:17:24.506Z,57.99
2019-05-07T06:22:52.766Z,58.02
2019-05-07T06:27:56.449Z,58.15
2019-05-07T06:33:02.766Z,58.15
2019-05-07T06:38:08.334Z,58.03
2019-05-07T06:43:23.351Z,57.84
2019-05-07T06:48:38.944Z,57.49
2019-05-07T06:53:33.790Z,57.49
2019-05-07T06:59:02.088Z,56.70
2019-05-07T07:04:12.941Z,53.73
2019-05-07T07:09:23.803Z,56.74
2019-05-07T07:14:27.918Z,57.54
2019-05-07T07:19:34.214Z,58.21
2019-05-07T07:24:38.082Z,58.21
2019-05-07T07:29:46.829Z,59.10
2019-05-07T07:34:53.214Z,58.01
2019-05-07T07:40:15.091Z,54.85
2019-05-07T07:45:19.523Z,52.06
2019-05-07T07:50:23.536Z,51.54
2019-05-07T07:55:42.596Z,51.45
2019-05-07T08:01:03.144Z,51.89
2019-05-07T08:06:07.326Z,52.42
2019-05-07T08:11:12.677Z,52.02
2019-05-07T08:16:17.023Z,52.21
2019-05-07T08:21:22.741Z,52.16
2019-05-07T08:26:27.008Z,52.54
2019-05-07T08:31:42.657Z,52.80
2019-05-07T08:36:46.807Z,52.80
2019-05-07T08:41:52.736Z,53.27
2019-05-07T08:47:13.193Z,53.13
2019-05-07T08:52:17.358Z,53.35
2019-05-07T08:57:22.734Z,53.58
2019-05-07T09:02:27.142Z,53.40
2019-05-07T09:07:32.221Z,53.40
2019-05-07T09:12:36.525Z,53.29
2019-05-07T09:17:42.292Z,53.90
2019-05-07T09:22:46.840Z,53.96
2019-05-07T09:27:52.612Z,54.10
2019-05-07T09:33:02.515Z,54.08
2019-05-07T09:38:06.871Z,54.32
2019-05-07T09:43:11.729Z,54.57
2019-05-07T09:48:16.091Z,54.87
2019-05-07T09:53:20.114Z,54.87
2019-05-07T09:58:35.648Z,55.56
2019-05-07T10:03:32.189Z,55.66
2019-05-07T10:08:36.070Z,55.66
2019-05-07T10:13:44.928Z,55.49
2019-05-07T10:18:49.094Z,55.99
2019-05-07T10:23:53.318Z,55.99
2019-05-07T10:28:57.646Z,56.08
2019-05-07T10:34:03.031Z,56.02
2019-05-07T10:39:08.036Z,55.49
2019-05-07T10:44:13.270Z,55.60
2019-05-07T10:49:22.595Z,55.60
2019-05-07T10:54:26.775Z,55.65
2019-05-07T10:59:30.821Z,55.17
2019-05-07T11:04:42.594Z,55.13
2019-05-07T11:09:42.015Z,55.61
2019-05-07T11:14:46.234Z,55.07
2019-05-07T11:19:50.366Z,54.99
2019-05-07T11:24:54.395Z,55.44
2019-05-07T11:29:58.561Z,55.41
2019-05-07T11:35:03.113Z,55.16
2019-05-07T11:40:07.950Z,55.16
2019-05-07T11:45:17.960Z,46.75
2019-05-07T11:51:04.165Z,47.64
2019-05-07T11:56:05.463Z,47.21
2019-05-07T12:01:16.747Z,50.84
2019-05-07T12:06:21.688Z,49.19
2019-05-07T12:11:25.930Z,48.91
2019-05-07T12:16:32.025Z,50.78
2019-05-07T12:21:36.074Z,54.14
2019-05-07T12:26:41.819Z,54.90
2019-05-07T12:31:58.207Z,55.31
2019-05-07T12:37:02.336Z,55.25
2019-05-07T12:42:06.537Z,56.26
2019-05-07T12:47:12.086Z,55.83
2019-05-07T12:52:32.028Z,56.06
2019-05-07T12:57:36.346Z,55.24
2019-05-07T13:02:44.527Z,54.93
2019-05-07T13:07:52.067Z,54.93
2019-05-07T13:12:56.190Z,55.60
2019-05-07T13:18:02.572Z,55.59
2019-05-07T13:23:06.220Z,55.44
2019-05-07T13:28:11.860Z,55.15
2019-05-07T13:33:18.299Z,55.51
2019-05-07T13:38:34.815Z,56.38
2019-05-07T13:43:58.571Z,56.63
2019-05-07T13:49:03.651Z,56.26
2019-05-07T13:54:07.825Z,56.39
2019-05-07T13:59:13.218Z,56.92
2019-05-07T14:04:17.475Z,56.41
2019-05-07T14:09:24.262Z,56.41
2019-05-07T14:14:28.636Z,56.44
2019-05-07T14:19:32.900Z,56.41
2019-05-07T14:24:37.050Z,57.21
2019-05-07T14:29:42.415Z,57.35
2019-05-07T14:35:12.363Z,57.18
2019-05-07T14:40:16.931Z,57.24
2019-05-07T14:45:23.522Z,57.24
2019-05-07T14:50:27.062Z,56.20
2019-05-07T14:55:32.424Z,56.55
2019-05-07T15:00:37.073Z,56.55
2019-05-07T15:05:42.238Z,56.17
2019-05-07T15:10:46.637Z,56.17
2019-05-07T15:15:52.505Z,56.77
2019-05-07T15:20:56.870Z,56.77
2019-05-07T15:26:04.525Z,56.25
2019-05-07T15:31:14.036Z,56.42
2019-05-07T15:36:18.215Z,56.19
2019-05-07T15:41:23.360Z,56.09
2019-05-07T15:46:27.456Z,56.05
2019-05-07T15:51:32.798Z,56.22
2019-05-07T15:56:36.903Z,56.22
2019-05-07T16:01:42.006Z,56.00
2019-05-07T16:06:46.254Z,56.12
2019-05-07T16:11:50.338Z,56.25
2019-05-07T16:16:59.492Z,56.25
2019-05-07T16:22:08.439Z,54.68
2019-05-07T16:27:12.522Z,54.00
2019-05-07T16:32:16.605Z,54.10
2019-05-07T16:37:21.674Z,53.55
2019-05-07T16:42:25.764Z,53.82
2019-05-07T16:47:29.901Z,53.72
2019-05-07T16:52:35.198Z,54.04
2019-05-07T16:57:48.176Z,53.50
2019-05-07T17:02:55.768Z,53.50
2019-05-07T17:08:17.796Z,53.88
2019-05-07T17:13:21.845Z,53.96
2019-05-07T17:18:26.974Z,54.07
2019-05-07T17:23:43.684Z,53.80
2019-05-07T17:28:36.878Z,54.12
2019-05-07T17:33:42.459Z,54.11
2019-05-07T17:38:46.732Z,54.31
2019-05-07T17:43:52.108Z,53.91
2019-05-07T17:48:56.250Z,54.04
2019-05-07T17:54:00.398Z,54.30
2019-05-07T17:59:04.517Z,54.30
2019-05-07T18:04:08.610Z,54.64
2019-05-07T18:09:12.776Z,54.14
2019-05-07T18:14:16.832Z,53.91
2019-05-07T18:19:22.198Z,53.81
2019-05-07T18:24:26.679Z,54.01
2019-05-07T18:29:32.466Z,53.91
2019-05-07T18:34:36.465Z,54.20
2019-05-07T18:39:42.792Z,54.32
2019-05-07T18:44:46.431Z,54.32
2019-05-07T18:49:51.858Z,54.78
2019-05-07T18:54:56.104Z,54.70
2019-05-07T19:00:03.193Z,54.53
2019-05-07T19:05:06.896Z,54.53
2019-05-07T19:10:12.719Z,54.67
2019-05-07T19:15:17.072Z,54.34
2019-05-07T19:20:21.795Z,54.34
2019-05-07T19:25:26.084Z,55.24
2019-05-07T19:30:32.743Z,55.15
2019-05-07T19:35:36.943Z,55.06
2019-05-07T19:40:42.009Z,55.27
2019-05-07T19:45:46.230Z,55.27
2019-05-07T19:50:52.565Z,55.60
2019-05-07T19:56:16.056Z,55.79
2019-05-07T20:01:24.994Z,55.64
2019-05-07T20:06:29.004Z,55.63
2019-05-07T20:11:45.503Z,55.63
2019-05-07T20:16:49.553Z,55.89
2019-05-07T20:21:53.572Z,55.94
2019-05-07T20:26:57.721Z,55.94
2019-05-07T20:32:01.941Z,56.19
2019-05-07T20:37:06.144Z,56.19
2019-05-07T20:42:12.234Z,56.68
2019-05-07T20:47:16.027Z,56.20
2019-05-07T20:52:20.225Z,56.99
2019-05-07T20:57:27.311Z,56.99
2019-05-07T21:02:44.467Z,56.75
2019-05-07T21:07:37.091Z,57.07
2019-05-07T21:12:42.374Z,56.95
2019-05-07T21:17:46.465Z,57.08
2019-05-07T21:22:51.915Z,57.09
2019-05-07T21:27:56.117Z,56.87
2019-05-07T21:43:06.045Z,57.62
2019-05-07T21:48:10.150Z,57.32
2019-05-07T21:53:23.054Z,57.54
2019-05-07T21:58:34.450Z,57.63
2019-05-07T22:03:39.644Z,57.32
2019-05-07T22:08:43.689Z,57.32
2019-05-07T22:13:47.796Z,57.52
2019-05-07T22:18:52.271Z,57.52
2019-05-07T22:23:56.410Z,57.74
2019-05-07T22:29:02.889Z,58.17
2019-05-07T22:34:25.306Z,58.17
2019-05-07T22:39:29.422Z,58.14
2019-05-07T22:44:33.780Z,58.47
2019-05-07T22:49:37.804Z,58.72
2019-05-07T22:54:42.517Z,58.72
2019-05-07T22:59:46.800Z,59.36
2019-05-07T23:04:52.076Z,59.11
2019-05-07T23:09:56.329Z,59.35
2019-05-07T23:15:02.559Z,59.35
2019-05-07T23:20:06.911Z,59.67
2019-05-07T23:25:10.975Z,59.95
2019-05-07T23:30:15.767Z,59.94
2019-05-07T23:35:22.108Z,59.75
2019-05-07T23:40:33.109Z,60.33
2019-05-07T23:45:37.279Z,60.31
2019-05-07T23:50:41.932Z,60.66
2019-05-07T23:55:46.019Z,60.87
